KLRJ/LRJ METAR and TAF weather

Enter ICAO airport designator
Station Type Date Time Source
KLRJ METAR 2019/02/21 15:55 UTC NOAA

KLRJ 211555Z AUTO 23003KT 7SM CLR M13/M14 A3019 RMK AO2


Station Type Date Time Source
KLRJ Decoded METAR 2019/02/21 15:55 UTC NOAA

Le Mars, Le Mars Municipal Airport, IA, United States (KLRJ) 42-46-41N 096-11-37W
Feb 21, 2019 - 10:55 AM EST / 2019.02.21 1555 UTC
Wind: from the SW (230 degrees) at 3 MPH (3 KT):0
Visibility: 7 mile(s):0
Sky conditions: clear
Temperature: 8 F (-13 C)
Dew Point: 6 F (-14 C)
Relative Humidity: 92%
Pressure (altimeter): 30.19 in. Hg (1022 hPa)
ob: KLRJ 211555Z AUTO 23003KT 7SM CLR M13/M14 A3019 RMK AO2
cycle: 16

Station Type Date Time Source
KLRJ TAF UTC NOAA

Error!


Example: see airport list